createdAt,value
2019-03-06T00:02:08.524Z,88.50
2019-03-06T00:04:38.203Z,88.40
2019-03-06T00:07:08.040Z,88.20
2019-03-06T00:09:37.065Z,87.30
2019-03-06T00:12:06.397Z,86.50
2019-03-06T00:14:36.045Z,86.10
2019-03-06T00:17:05.504Z,86.50
2019-03-06T00:19:34.861Z,86.50
2019-03-06T00:22:07.205Z,86.80
2019-03-06T00:24:36.942Z,87.20
2019-03-06T00:27:06.254Z,87.20
2019-03-06T00:29:36.181Z,86.80
2019-03-06T00:32:05.252Z,86.70
2019-03-06T00:34:34.855Z,87.00
2019-03-06T00:37:04.194Z,87.10
2019-03-06T00:39:41.962Z,87.30
2019-03-06T00:42:11.117Z,86.80
2019-03-06T00:44:40.502Z,86.70
2019-03-06T00:47:10.080Z,86.90
2019-03-06T00:49:39.932Z,87.00
2019-03-06T00:52:09.019Z,87.00
2019-03-06T00:54:37.962Z,86.80
2019-03-06T00:57:07.314Z,86.00
2019-03-06T00:59:36.777Z,85.20
2019-03-06T01:02:06.465Z,84.80
2019-03-06T01:04:36.011Z,84.90
2019-03-06T01:07:05.435Z,85.80
2019-03-06T01:09:35.156Z,85.70
2019-03-06T01:12:04.497Z,86.00
2019-03-06T01:14:33.552Z,86.70
2019-03-06T01:17:02.865Z,87.00
2019-03-06T01:19:32.151Z,87.00
2019-03-06T01:22:01.231Z,87.50
2019-03-06T01:24:30.618Z,87.50
2019-03-06T01:27:00.062Z,87.00
2019-03-06T01:29:29.049Z,86.70
2019-03-06T01:31:58.150Z,86.00
2019-03-06T01:34:55.642Z,85.40
2019-03-06T01:37:49.816Z,85.40
2019-03-06T01:40:26.784Z,85.40
2019-03-06T01:43:17.354Z,85.50
2019-03-06T01:45:46.493Z,85.60
2019-03-06T01:48:17.850Z,86.00
2019-03-06T01:50:47.197Z,86.10
2019-03-06T01:53:16.993Z,86.70
2019-03-06T01:55:45.984Z,87.50
2019-03-06T01:58:15.640Z,88.10
2019-03-06T02:00:45.422Z,88.10
2019-03-06T02:03:14.914Z,87.80
2019-03-06T02:05:56.396Z,87.50
2019-03-06T02:08:27.862Z,86.70
2019-03-06T02:10:57.574Z,86.90
2019-03-06T02:13:27.066Z,87.50
2019-03-06T02:15:57.404Z,87.70
2019-03-06T02:18:27.004Z,87.40
2019-03-06T02:20:57.099Z,86.60
2019-03-06T02:23:27.064Z,86.30
2019-03-06T02:25:56.877Z,86.90
2019-03-06T02:28:26.302Z,86.00
2019-03-06T02:30:55.978Z,85.30
2019-03-06T02:33:25.694Z,85.90
2019-03-06T02:35:54.734Z,86.00
2019-03-06T02:38:24.088Z,85.80
2019-03-06T02:40:53.657Z,86.00
2019-03-06T02:43:22.803Z,86.50
2019-03-06T02:45:53.066Z,86.50
2019-03-06T02:48:22.283Z,86.60
2019-03-06T02:50:51.665Z,86.60
2019-03-06T02:53:21.297Z,86.70
2019-03-06T02:55:50.580Z,86.40
2019-03-06T02:58:24.338Z,86.40
2019-03-06T03:01:27.764Z,86.30
2019-03-06T03:04:19.752Z,86.50
2019-03-06T03:06:52.260Z,86.30
2019-03-06T03:09:21.720Z,86.80
2019-03-06T03:11:51.128Z,85.80
2019-03-06T03:14:21.112Z,85.80
2019-03-06T03:16:50.188Z,85.40
2019-03-06T03:19:19.847Z,85.50
2019-03-06T03:21:49.558Z,85.80
2019-03-06T03:24:19.843Z,86.20
2019-03-06T03:26:49.634Z,86.00
2019-03-06T03:29:19.551Z,86.00
2019-03-06T03:31:49.104Z,86.30
2019-03-06T03:34:18.517Z,86.20
2019-03-06T03:36:49.083Z,86.20
2019-03-06T03:39:18.273Z,85.80
2019-03-06T03:41:48.130Z,86.10
2019-03-06T03:44:17.267Z,86.00
2019-03-06T03:46:48.024Z,86.10
2019-03-06T03:49:18.624Z,86.60
2019-03-06T03:51:47.952Z,86.50
2019-03-06T03:54:17.570Z,86.80
2019-03-06T03:56:49.131Z,86.80
2019-03-06T03:59:18.316Z,86.60
2019-03-06T04:01:47.849Z,86.60
2019-03-06T04:04:17.502Z,86.30
2019-03-06T04:06:46.576Z,86.00
2019-03-06T04:09:16.598Z,86.00
2019-03-06T04:11:46.434Z,86.10
2019-03-06T04:14:15.850Z,86.10
2019-03-06T04:16:45.506Z,86.10
2019-03-06T04:19:14.690Z,86.30
2019-03-06T04:21:44.384Z,86.70
2019-03-06T04:24:13.923Z,87.10
2019-03-06T04:26:43.932Z,86.80
2019-03-06T04:29:13.626Z,86.40
2019-03-06T04:31:43.025Z,86.40
2019-03-06T04:34:12.790Z,86.40
2019-03-06T04:36:42.199Z,86.10
2019-03-06T04:39:11.823Z,85.90
2019-03-06T04:41:43.428Z,85.70
2019-03-06T04:44:14.535Z,85.70
2019-03-06T04:46:44.240Z,86.00
2019-03-06T04:49:13.605Z,86.80
2019-03-06T04:51:42.948Z,86.30
2019-03-06T04:54:12.778Z,86.30
2019-03-06T04:56:42.435Z,86.30
2019-03-06T04:59:11.777Z,86.10
2019-03-06T05:01:40.846Z,86.00
2019-03-06T05:04:10.739Z,86.30
2019-03-06T05:06:40.152Z,86.30
2019-03-06T05:09:10.518Z,87.00
2019-03-06T05:11:39.602Z,87.30
2019-03-06T05:14:09.254Z,87.00
2019-03-06T05:16:57.273Z,87.00
2019-03-06T05:19:26.530Z,87.20
2019-03-06T05:21:55.641Z,87.10
2019-03-06T05:24:25.100Z,87.00
2019-03-06T05:26:54.436Z,87.20
2019-03-06T05:29:25.625Z,86.60
2019-03-06T05:32:26.730Z,86.30
2019-03-06T05:34:56.334Z,87.20
2019-03-06T05:37:49.520Z,86.60
2019-03-06T05:40:18.913Z,86.80
2019-03-06T05:42:48.001Z,87.00
2019-03-06T05:45:17.362Z,86.90
2019-03-06T05:47:47.610Z,86.90
2019-03-06T05:50:17.913Z,86.60
2019-03-06T05:52:47.279Z,86.50
2019-03-06T05:55:16.926Z,87.10
2019-03-06T05:57:46.490Z,86.70
2019-03-06T06:00:17.535Z,86.30
2019-03-06T06:02:47.278Z,86.10
2019-03-06T06:05:17.856Z,86.20
2019-03-06T06:07:48.039Z,86.50
2019-03-06T06:10:17.873Z,86.30
2019-03-06T06:12:47.075Z,86.50
2019-03-06T06:15:17.406Z,86.40
2019-03-06T06:17:46.948Z,86.10
2019-03-06T06:20:16.170Z,86.00
2019-03-06T06:23:10.867Z,86.00
2019-03-06T06:25:40.580Z,86.00
2019-03-06T06:28:09.886Z,86.10
2019-03-06T06:30:39.647Z,86.00
2019-03-06T06:33:09.867Z,86.30
2019-03-06T06:35:39.610Z,85.40
2019-03-06T06:38:10.790Z,84.70
2019-03-06T06:40:40.263Z,84.50
2019-03-06T06:43:10.048Z,84.90
2019-03-06T06:45:39.682Z,85.00
2019-03-06T06:48:17.206Z,85.40
2019-03-06T06:51:01.823Z,85.10
2019-03-06T06:53:36.497Z,84.60
2019-03-06T06:56:44.462Z,84.10
2019-03-06T06:59:35.273Z,84.30
2019-03-06T07:03:17.422Z,83.80
2019-03-06T07:06:12.351Z,83.80
2019-03-06T07:09:13.188Z,83.80
2019-03-06T07:12:00.819Z,83.80
2019-03-06T07:14:49.495Z,83.80
2019-03-06T07:17:40.659Z,83.80
2019-03-06T07:20:28.799Z,83.50
2019-03-06T07:23:16.413Z,83.90
2019-03-06T07:26:12.138Z,84.00
2019-03-06T07:29:05.261Z,82.90
2019-03-06T07:31:42.366Z,82.20
2019-03-06T07:34:27.146Z,82.30
2019-03-06T07:37:28.119Z,81.50
2019-03-06T07:39:57.283Z,81.60
2019-03-06T07:43:04.366Z,80.90
2019-03-06T07:46:05.744Z,79.80
2019-03-06T07:49:14.617Z,79.90
2019-03-06T07:52:03.332Z,79.50
2019-03-06T07:54:41.883Z,78.30
2019-03-06T07:57:39.114Z,77.70
2019-03-06T08:00:20.042Z,77.80
2019-03-06T08:03:12.337Z,77.20
2019-03-06T08:05:42.420Z,76.50
2019-03-06T08:08:12.327Z,75.50
2019-03-06T08:10:42.340Z,74.60
2019-03-06T08:13:23.090Z,73.20
2019-03-06T08:16:14.029Z,72.50
2019-03-06T08:19:01.323Z,71.20
2019-03-06T08:21:49.925Z,69.50
2019-03-06T08:24:36.514Z,68.70
2019-03-06T08:27:06.067Z,67.40
2019-03-06T08:29:37.247Z,65.90
2019-03-06T08:32:35.220Z,62.70
2019-03-06T08:35:04.988Z,60.00
2019-03-06T08:37:34.727Z,59.10
2019-03-06T08:40:04.721Z,58.60
2019-03-06T08:42:34.867Z,57.70
2019-03-06T08:45:05.707Z,57.10
2019-03-06T08:48:03.052Z,57.80
2019-03-06T08:50:54.212Z,57.30
2019-03-06T08:53:46.185Z,56.70
2019-03-06T08:56:34.779Z,55.90
2019-03-06T08:59:20.014Z,56.90
2019-03-06T09:02:15.456Z,56.40
2019-03-06T09:05:00.477Z,56.00
2019-03-06T09:07:41.433Z,54.90
2019-03-06T09:10:29.752Z,54.00
2019-03-06T09:13:25.050Z,53.30
2019-03-06T09:16:21.572Z,52.70
2019-03-06T09:19:10.145Z,50.70
2019-03-06T09:21:45.520Z,50.60
2019-03-06T09:24:35.325Z,49.20
2019-03-06T09:27:26.707Z,48.10
2019-03-06T09:30:33.595Z,46.90
2019-03-06T09:33:10.958Z,45.20
2019-03-06T09:35:52.139Z,44.00
2019-03-06T09:38:40.235Z,43.90
2019-03-06T09:41:33.973Z,41.20
2019-03-06T09:44:23.474Z,36.70
2019-03-06T09:47:09.586Z,36.40
2019-03-06T09:49:57.035Z,35.30
2019-03-06T09:52:48.118Z,35.30
2019-03-06T09:55:34.214Z,35.60
2019-03-06T09:58:15.732Z,36.70
2019-03-06T10:01:24.257Z,36.70
2019-03-06T10:04:10.330Z,37.20
2019-03-06T10:06:56.438Z,35.90
2019-03-06T10:09:39.590Z,35.50
2019-03-06T10:12:27.104Z,35.30
2019-03-06T10:15:05.220Z,31.90
2019-03-06T10:17:38.733Z,28.90
2019-03-06T10:20:10.018Z,27.80
2019-03-06T10:22:38.413Z,26.70
2019-03-06T10:25:08.595Z,26.00
2019-03-06T10:27:37.068Z,27.10
2019-03-06T10:30:07.187Z,27.70
2019-03-06T10:32:35.315Z,27.80
2019-03-06T10:35:04.927Z,27.90
2019-03-06T10:37:34.818Z,28.30
2019-03-06T10:40:04.941Z,28.80
2019-03-06T10:42:34.865Z,30.20
2019-03-06T10:45:04.454Z,31.90
2019-03-06T10:47:34.363Z,34.20
2019-03-06T10:50:03.881Z,36.50
2019-03-06T10:52:34.307Z,38.00
2019-03-06T10:55:05.057Z,38.20
2019-03-06T10:57:34.372Z,40.10
2019-03-06T11:00:03.714Z,41.10
2019-03-06T11:02:32.830Z,41.60
2019-03-06T11:05:08.807Z,42.70
2019-03-06T11:07:37.981Z,43.60
2019-03-06T11:10:08.293Z,43.50
2019-03-06T11:12:37.848Z,42.90
2019-03-06T11:15:09.238Z,43.00
2019-03-06T11:17:39.448Z,43.30
2019-03-06T11:20:12.463Z,44.10
2019-03-06T11:22:42.083Z,43.50
2019-03-06T11:25:12.387Z,44.20
2019-03-06T11:27:41.862Z,45.00
2019-03-06T11:30:16.933Z,44.90
2019-03-06T11:32:54.315Z,45.60
2019-03-06T11:35:18.478Z,45.20
2019-03-06T11:37:48.064Z,45.40
2019-03-06T11:40:17.813Z,45.40
2019-03-06T11:42:47.270Z,45.70
2019-03-06T11:45:18.145Z,45.30
2019-03-06T11:47:48.365Z,45.10
2019-03-06T11:50:20.283Z,45.00
2019-03-06T11:52:49.407Z,45.10
2019-03-06T11:55:19.091Z,45.40
2019-03-06T11:57:48.577Z,45.50
2019-03-06T12:00:33.121Z,45.30
2019-03-06T12:03:03.146Z,45.40
2019-03-06T12:05:31.892Z,44.60
2019-03-06T12:08:01.254Z,45.10
2019-03-06T12:10:31.381Z,45.10
2019-03-06T12:12:59.666Z,44.80
2019-03-06T12:15:27.983Z,44.10
2019-03-06T12:17:58.056Z,44.40
2019-03-06T12:20:27.654Z,43.40
2019-03-06T12:22:56.817Z,43.10
2019-03-06T12:25:25.989Z,43.70
2019-03-06T12:27:55.103Z,43.40
2019-03-06T12:30:25.446Z,44.20
2019-03-06T12:32:54.967Z,45.50
2019-03-06T12:35:24.711Z,45.50
2019-03-06T12:37:54.552Z,45.90
2019-03-06T12:40:24.693Z,46.50
2019-03-06T12:42:55.664Z,46.40
2019-03-06T12:45:25.093Z,48.40
2019-03-06T12:47:55.711Z,48.90
2019-03-06T12:50:26.169Z,48.80
2019-03-06T12:52:55.810Z,48.80
2019-03-06T12:55:25.090Z,48.30
2019-03-06T12:57:59.274Z,47.70
2019-03-06T13:00:26.108Z,47.60
2019-03-06T13:02:55.807Z,48.20
2019-03-06T13:05:25.875Z,48.30
2019-03-06T13:07:55.299Z,49.10
2019-03-06T13:10:24.766Z,48.60
2019-03-06T13:12:54.475Z,48.30
2019-03-06T13:15:24.590Z,47.60
2019-03-06T13:17:55.118Z,48.30
2019-03-06T13:20:24.828Z,48.40
2019-03-06T13:22:54.700Z,48.40
2019-03-06T13:25:25.117Z,48.50
2019-03-06T13:27:55.170Z,47.60
2019-03-06T13:30:25.322Z,48.20
2019-03-06T13:33:10.998Z,48.30
2019-03-06T13:35:39.185Z,47.40
2019-03-06T13:38:08.299Z,47.20
2019-03-06T13:40:37.673Z,46.60
2019-03-06T13:43:07.799Z,47.00
2019-03-06T13:45:38.029Z,46.70
2019-03-06T13:48:07.889Z,46.80
2019-03-06T13:50:37.344Z,45.70
2019-03-06T13:53:07.154Z,45.50
2019-03-06T13:55:36.572Z,46.00
2019-03-06T13:58:05.835Z,46.40
2019-03-06T14:00:35.271Z,46.60
2019-03-06T14:03:07.336Z,47.50
2019-03-06T14:05:37.051Z,47.70
2019-03-06T14:08:07.225Z,48.10
2019-03-06T14:10:37.234Z,48.40
2019-03-06T14:13:06.489Z,47.50
2019-03-06T14:15:35.628Z,48.30
2019-03-06T14:18:06.055Z,48.60
2019-03-06T14:20:35.509Z,48.60
2019-03-06T14:23:04.765Z,49.40
2019-03-06T14:25:35.018Z,49.80
2019-03-06T14:28:04.726Z,48.50
2019-03-06T14:30:33.909Z,48.50
2019-03-06T14:33:03.473Z,49.00
2019-03-06T14:35:32.663Z,48.30
2019-03-06T14:38:03.358Z,50.10
2019-03-06T14:40:33.032Z,50.70
2019-03-06T14:43:03.545Z,50.30
2019-03-06T14:45:33.523Z,49.50
2019-03-06T14:48:02.977Z,49.10
2019-03-06T14:50:32.537Z,48.30
2019-03-06T14:53:02.632Z,48.30
2019-03-06T14:55:32.195Z,48.30
2019-03-06T14:58:01.813Z,48.30
2019-03-06T15:00:31.552Z,48.60
2019-03-06T15:03:03.459Z,49.00
2019-03-06T15:05:33.416Z,49.00
2019-03-06T15:08:03.991Z,49.30
2019-03-06T15:10:42.493Z,49.40
2019-03-06T15:13:04.425Z,48.20
2019-03-06T15:15:34.367Z,48.30
2019-03-06T15:18:10.657Z,48.30
2019-03-06T15:20:37.379Z,48.30
2019-03-06T15:23:08.971Z,48.30
2019-03-06T15:25:38.587Z,49.20
2019-03-06T15:28:08.589Z,49.90
2019-03-06T15:30:39.874Z,50.40
2019-03-06T15:33:09.294Z,50.90
2019-03-06T15:35:39.959Z,51.30
2019-03-06T15:38:11.370Z,51.60
2019-03-06T15:40:40.941Z,51.90
2019-03-06T15:43:13.689Z,52.10
2019-03-06T15:45:43.544Z,52.80
2019-03-06T15:48:13.548Z,52.90
2019-03-06T15:50:43.276Z,53.00
2019-03-06T15:53:23.859Z,53.40
2019-03-06T15:55:46.088Z,53.60
2019-03-06T15:58:16.191Z,53.70
2019-03-06T16:00:46.753Z,54.10
2019-03-06T16:03:16.000Z,54.30
2019-03-06T16:05:48.871Z,54.80
2019-03-06T16:08:18.227Z,55.00
2019-03-06T16:10:48.501Z,55.40
2019-03-06T16:13:18.966Z,55.50
2019-03-06T16:15:50.558Z,55.80
2019-03-06T16:18:21.959Z,56.10
2019-03-06T16:20:51.259Z,56.10
2019-03-06T16:23:21.585Z,56.30
2019-03-06T16:25:51.017Z,56.30
2019-03-06T16:28:20.581Z,56.80
2019-03-06T16:30:49.917Z,57.20
2019-03-06T16:33:21.838Z,57.40
2019-03-06T16:35:51.242Z,57.60
2019-03-06T16:38:23.256Z,57.70
2019-03-06T16:40:53.162Z,57.80
2019-03-06T16:43:22.351Z,58.00
2019-03-06T16:45:52.094Z,58.10
2019-03-06T16:48:21.277Z,58.40
2019-03-06T16:50:51.097Z,58.60
2019-03-06T16:53:20.640Z,59.00
2019-03-06T16:55:50.407Z,59.40
2019-03-06T16:58:20.003Z,60.00
2019-03-06T17:00:52.563Z,60.30
2019-03-06T17:03:34.392Z,60.60
2019-03-06T17:06:04.147Z,60.50
2019-03-06T17:08:33.815Z,60.60
2019-03-06T17:11:14.984Z,60.70
2019-03-06T17:13:44.567Z,60.90
2019-03-06T17:16:14.308Z,61.50
2019-03-06T17:18:43.944Z,61.50
2019-03-06T17:21:13.529Z,62.00
2019-03-06T17:23:43.358Z,62.10
2019-03-06T17:26:12.682Z,62.00
2019-03-06T17:28:42.623Z,61.90
2019-03-06T17:31:12.723Z,62.20
2019-03-06T17:33:42.726Z,61.80
2019-03-06T17:36:12.013Z,62.00
2019-03-06T17:38:41.856Z,61.90
2019-03-06T17:41:11.109Z,61.80
2019-03-06T17:43:40.298Z,61.60
2019-03-06T17:46:09.936Z,61.80
2019-03-06T17:48:39.383Z,62.10
2019-03-06T17:51:40.600Z,62.20
2019-03-06T17:54:42.561Z,62.20
2019-03-06T17:57:24.011Z,61.90
2019-03-06T17:59:51.186Z,62.40
2019-03-06T18:02:20.897Z,62.30
2019-03-06T18:04:52.795Z,62.20
2019-03-06T18:07:22.918Z,62.40
2019-03-06T18:09:52.995Z,62.20
2019-03-06T18:12:25.759Z,62.50
2019-03-06T18:14:55.250Z,62.70
2019-03-06T18:17:26.608Z,63.00
2019-03-06T18:19:56.245Z,63.20
2019-03-06T18:22:26.023Z,63.70
2019-03-06T18:25:14.648Z,63.70
2019-03-06T18:27:51.287Z,63.40
2019-03-06T18:30:24.030Z,63.50
2019-03-06T18:32:55.539Z,63.70
2019-03-06T18:35:33.039Z,63.90
2019-03-06T18:38:02.871Z,64.10
2019-03-06T18:40:32.900Z,64.10
2019-03-06T18:43:03.146Z,64.20
2019-03-06T18:45:34.247Z,64.10
2019-03-06T18:48:03.994Z,64.30
2019-03-06T18:50:33.829Z,65.20
2019-03-06T18:53:04.333Z,64.60
2019-03-06T18:55:36.601Z,64.80
2019-03-06T18:58:06.102Z,65.30
2019-03-06T19:00:41.030Z,65.30
2019-03-06T19:03:10.381Z,65.50
2019-03-06T19:05:42.851Z,66.20
2019-03-06T19:08:14.457Z,65.60
2019-03-06T19:10:44.200Z,65.60
2019-03-06T19:13:14.265Z,65.50
2019-03-06T19:15:43.979Z,65.80
2019-03-06T19:18:13.255Z,65.80
2019-03-06T19:20:44.129Z,66.00
2019-03-06T19:23:18.977Z,65.80
2019-03-06T19:25:51.911Z,65.60
2019-03-06T19:28:22.174Z,65.90
2019-03-06T19:30:52.458Z,65.00
2019-03-06T19:33:23.297Z,64.60
2019-03-06T19:35:53.931Z,64.30
2019-03-06T19:38:25.523Z,64.10
2019-03-06T19:40:55.386Z,63.90
2019-03-06T19:43:25.825Z,63.30
2019-03-06T19:46:00.624Z,62.70
2019-03-06T19:48:31.807Z,62.60
2019-03-06T19:51:02.937Z,62.40
2019-03-06T19:53:34.365Z,61.80
2019-03-06T19:56:06.806Z,61.10
2019-03-06T19:58:40.791Z,60.60
2019-03-06T20:01:11.282Z,60.20
2019-03-06T20:03:41.370Z,59.20
2019-03-06T20:06:11.903Z,58.80
2019-03-06T20:08:43.738Z,58.30
2019-03-06T20:11:13.044Z,57.40
2019-03-06T20:13:44.398Z,57.40
2019-03-06T20:16:19.446Z,57.40
2019-03-06T20:18:49.373Z,57.80
2019-03-06T20:21:20.237Z,56.80
2019-03-06T20:23:50.024Z,56.10
2019-03-06T20:26:20.166Z,55.40
2019-03-06T20:28:49.923Z,55.30
2019-03-06T20:31:19.837Z,55.40
2019-03-06T20:33:49.459Z,55.50
2019-03-06T20:36:18.971Z,55.30
2019-03-06T20:38:48.458Z,54.80
2019-03-06T20:41:17.856Z,54.40
2019-03-06T20:43:48.686Z,54.60
2019-03-06T20:46:18.364Z,53.70
2019-03-06T20:48:47.621Z,53.40
2019-03-06T20:51:17.465Z,52.80
2019-03-06T20:53:46.866Z,52.20
2019-03-06T20:56:17.278Z,52.00
2019-03-06T20:58:48.735Z,52.10
2019-03-06T21:01:18.930Z,51.50
2019-03-06T21:03:50.297Z,51.40
2019-03-06T21:06:20.310Z,50.90
2019-03-06T21:08:50.190Z,50.10
2019-03-06T21:11:20.142Z,50.20
2019-03-06T21:13:50.231Z,50.20
2019-03-06T21:16:20.233Z,49.70
2019-03-06T21:18:49.378Z,49.20
2019-03-06T21:21:20.414Z,48.40
2019-03-06T21:23:49.866Z,47.90
2019-03-06T21:26:20.483Z,48.00
2019-03-06T21:28:50.044Z,48.20
2019-03-06T21:31:20.459Z,48.30
2019-03-06T21:33:53.657Z,48.30
2019-03-06T21:36:23.494Z,48.50
2019-03-06T21:38:53.524Z,48.40
2019-03-06T21:41:24.298Z,48.50
2019-03-06T21:43:54.346Z,48.40
2019-03-06T21:46:34.250Z,47.80
2019-03-06T21:49:07.739Z,47.70
2019-03-06T21:51:46.183Z,47.20
2019-03-06T22:13:29.666Z,42.60
2019-03-06T22:19:18.541Z,42.20
2019-03-06T22:21:48.796Z,42.10
2019-03-06T22:24:19.696Z,41.70
2019-03-06T22:27:17.462Z,41.40
2019-03-06T22:29:47.855Z,41.30
2019-03-06T22:35:08.780Z,41.50
2019-03-06T22:38:01.556Z,41.50
2019-03-06T22:40:35.404Z,41.30
2019-03-06T22:43:05.493Z,41.40
2019-03-06T22:45:53.522Z,41.40
2019-03-06T22:48:39.494Z,41.30
2019-03-06T23:09:33.593Z,41.20
2019-03-06T23:12:10.393Z,41.20
2019-03-06T23:15:04.064Z,41.20
2019-03-06T23:17:34.503Z,41.10
2019-03-06T23:20:05.855Z,40.90
2019-03-06T23:22:35.746Z,40.90
2019-03-06T23:25:05.116Z,40.70
2019-03-06T23:27:35.106Z,40.70
2019-03-06T23:30:07.889Z,41.10
2019-03-06T23:32:39.772Z,41.80
2019-03-06T23:35:09.320Z,41.30
2019-03-06T23:37:39.063Z,41.10
2019-03-06T23:40:08.496Z,40.90
2019-03-06T23:42:38.103Z,41.10
2019-03-06T23:45:08.293Z,41.20
2019-03-06T23:47:38.599Z,41.00
2019-03-06T23:50:08.050Z,41.10
2019-03-06T23:52:58.458Z,41.10
2019-03-06T23:55:37.306Z,40.30
2019-03-06T23:58:07.324Z,40.90
